To NAV CANADA Home Page Login to a new session Search on AWWS site Disclaimer Vers la page française équivalente Tips FAQ What's new on the site To the Forecasts and Observations / NOTAM section To "File a Flight Plan" website Publications and other links Update of the User's profile FIC Telephone Numbers My Weather Data Folder Route Weather Data Regional Weather Data Local Weather Data To the Forecasts and Observations / NOTAM section
Request Generated 10/19/2018 at 15:28:10 UTC . Weather information available at that time is displayed.

METAR/TAF

FORT MCPHERSON/NT    

METAR CZFM 191500Z 15005KT 2SM IC SCT003 M08/M09 A2993 RMK ST4 0.0/SNWCVR/MUCH LOOSE SLP141=
LWIS CZFM 191400Z AUTO 15007KT M07/M08 A2996=
LWIS CZFM 191300Z AUTO 15008KT M06/M07 A2998=

TAF CZFM 191438Z 1915/1923 FCST NOT AVBL DUE NO OBS
RMK NXT FCST BY 191900Z=
Your time UTC time
Weather data provided by Environment Canada and NAV CANADA